sensor_id;sensor_type;location;lat;lon;timestamp;pressure;altitude;pressure_sealevel;temperature;humidity
35307;BME280;21420;52.196;21.416;2022-11-28T00:00:28;101308.55;;;2.35;75.78
35307;BME280;21420;52.196;21.416;2022-11-28T00:02:55;101312.94;;;2.44;75.88
35307;BME280;21420;52.196;21.416;2022-11-28T00:05:22;101311.31;;;2.45;75.85
35307;BME280;21420;52.196;21.416;2022-11-28T00:07:48;101309.13;;;2.42;75.66
35307;BME280;21420;52.196;21.416;2022-11-28T00:10:14;101312.28;;;2.32;75.40
35307;BME280;21420;52.196;21.416;2022-11-28T00:12:40;101305.74;;;2.25;75.37
35307;BME280;21420;52.196;21.416;2022-11-28T00:15:09;101308.18;;;2.24;75.41
35307;BME280;21420;52.196;21.416;2022-11-28T00:17:35;101303.81;;;2.20;75.37
35307;BME280;21420;52.196;21.416;2022-11-28T00:20:02;101306.73;;;2.14;75.27
35307;BME280;21420;52.196;21.416;2022-11-28T00:22:29;101302.35;;;2.05;75.18
35307;BME280;21420;52.196;21.416;2022-11-28T00:24:56;101309.84;;;2.00;75.20
35307;BME280;21420;52.196;21.416;2022-11-28T00:27:22;101309.31;;;1.98;75.29
35307;BME280;21420;52.196;21.416;2022-11-28T00:29:48;101302.48;;;1.93;75.31
35307;BME280;21420;52.196;21.416;2022-11-28T00:32:14;101305.51;;;1.97;75.43
35307;BME280;21420;52.196;21.416;2022-11-28T00:34:41;101309.31;;;1.98;75.44
35307;BME280;21420;52.196;21.416;2022-11-28T00:37:07;101307.33;;;1.91;75.31
35307;BME280;21420;52.196;21.416;2022-11-28T00:39:33;101302.47;;;1.91;75.36
35307;BME280;21420;52.196;21.416;2022-11-28T00:41:59;101305.69;;;1.87;75.33
35307;BME280;21420;52.196;21.416;2022-11-28T00:44:26;101311.09;;;1.87;75.39
35307;BME280;21420;52.196;21.416;2022-11-28T00:46:52;101306.74;;;1.86;75.40
35307;BME280;21420;52.196;21.416;2022-11-28T00:49:18;101302.18;;;1.87;75.46
35307;BME280;21420;52.196;21.416;2022-11-28T00:51:44;101300.29;;;1.87;75.47
35307;BME280;21420;52.196;21.416;2022-11-28T00:54:10;101301.86;;;1.83;75.36
35307;BME280;21420;52.196;21.416;2022-11-28T00:56:38;101296.98;;;1.80;75.32
35307;BME280;21420;52.196;21.416;2022-11-28T00:59:04;101294.19;;;1.73;75.19
35307;BME280;21420;52.196;21.416;2022-11-28T01:01:38;101293.31;;;1.64;75.17
35307;BME280;21420;52.196;21.416;2022-11-28T01:04:05;101289.80;;;1.66;75.34
35307;BME280;21420;52.196;21.416;2022-11-28T01:06:35;101292.49;;;1.66;75.37
35307;BME280;21420;52.196;21.416;2022-11-28T01:09:10;101291.14;;;1.66;75.47
35307;BME280;21420;52.196;21.416;2022-11-28T01:11:39;101292.27;;;1.71;75.53
35307;BME280;21420;52.196;21.416;2022-11-28T01:14:06;101283.12;;;1.72;75.56
35307;BME280;21420;52.196;21.416;2022-11-28T01:16:33;101284.19;;;1.73;75.55
35307;BME280;21420;52.196;21.416;2022-11-28T01:19:00;101278.79;;;1.73;75.56
35307;BME280;21420;52.196;21.416;2022-11-28T01:21:26;101273.91;;;1.70;75.50
35307;BME280;21420;52.196;21.416;2022-11-28T01:23:52;101273.89;;;1.68;75.41
35307;BME280;21420;52.196;21.416;2022-11-28T01:26:22;101269.61;;;1.72;75.60
35307;BME280;21420;52.196;21.416;2022-11-28T01:28:50;101266.95;;;1.77;75.71
35307;BME280;21420;52.196;21.416;2022-11-28T01:31:22;101264.86;;;1.84;75.83
35307;BME280;21420;52.196;21.416;2022-11-28T01:33:50;101267.87;;;1.87;75.79
35307;BME280;21420;52.196;21.416;2022-11-28T01:36:17;101270.59;;;1.90;75.83
35307;BME280;21420;52.196;21.416;2022-11-28T01:38:44;101263.34;;;1.96;75.87
35307;BME280;21420;52.196;21.416;2022-11-28T01:41:11;101256.34;;;1.97;75.82
35307;BME280;21420;52.196;21.416;2022-11-28T01:46:29;101253.95;;;2.01;75.89
35307;BME280;21420;52.196;21.416;2022-11-28T01:48:58;101254.55;;;2.08;75.96
35307;BME280;21420;52.196;21.416;2022-11-28T01:51:30;101255.86;;;2.03;75.73
35307;BME280;21420;52.196;21.416;2022-11-28T01:53:58;101246.66;;;2.01;75.72
35307;BME280;21420;52.196;21.416;2022-11-28T01:56:28;101247.18;;;1.98;75.62
35307;BME280;21420;52.196;21.416;2022-11-28T01:58:59;101240.13;;;1.97;75.66
35307;BME280;21420;52.196;21.416;2022-11-28T02:01:27;101239.08;;;1.98;75.69
35307;BME280;21420;52.196;21.416;2022-11-28T02:03:54;101237.20;;;2.01;75.72
35307;BME280;21420;52.196;21.416;2022-11-28T02:06:23;101232.01;;;1.95;75.52
35307;BME280;21420;52.196;21.416;2022-11-28T02:08:52;101233.56;;;1.88;75.46
35307;BME280;21420;52.196;21.416;2022-11-28T02:11:44;101225.43;;;1.83;75.37
35307;BME280;21420;52.196;21.416;2022-11-28T02:17:14;101216.73;;;1.76;75.50
35307;BME280;21420;52.196;21.416;2022-11-28T02:29:11;101223.02;;;1.86;75.67
35307;BME280;21420;52.196;21.416;2022-11-28T02:34:43;101219.59;;;1.94;75.88
35307;BME280;21420;52.196;21.416;2022-11-28T02:37:43;101219.91;;;2.02;76.00
35307;BME280;21420;52.196;21.416;2022-11-28T02:42:55;101216.75;;;2.13;76.05
35307;BME280;21420;52.196;21.416;2022-11-28T02:48:47;101215.15;;;2.15;75.98
35307;BME280;21420;52.196;21.416;2022-11-28T02:51:34;101212.78;;;2.23;76.09
35307;BME280;21420;52.196;21.416;2022-11-28T02:54:09;101210.58;;;2.20;75.98
35307;BME280;21420;52.196;21.416;2022-11-28T02:56:37;101209.51;;;2.19;75.93
35307;BME280;21420;52.196;21.416;2022-11-28T02:59:03;101208.67;;;2.18;75.91
35307;BME280;21420;52.196;21.416;2022-11-28T03:01:34;101209.17;;;2.10;75.81
35307;BME280;21420;52.196;21.416;2022-11-28T03:13:09;101207.16;;;1.95;75.68
35307;BME280;21420;52.196;21.416;2022-11-28T03:24:19;101209.86;;;1.95;75.88
35307;BME280;21420;52.196;21.416;2022-11-28T03:27:13;101209.61;;;1.97;75.90
35307;BME280;21420;52.196;21.416;2022-11-28T03:29:43;101208.28;;;2.02;76.01
35307;BME280;21420;52.196;21.416;2022-11-28T03:32:22;101195.02;;;1.98;75.85
35307;BME280;21420;52.196;21.416;2022-11-28T03:34:54;101198.50;;;1.96;75.86
35307;BME280;21420;52.196;21.416;2022-11-28T03:37:25;101197.98;;;1.94;75.82
35307;BME280;21420;52.196;21.416;2022-11-28T03:39:56;101201.98;;;1.91;75.81
35307;BME280;21420;52.196;21.416;2022-11-28T03:42:25;101199.55;;;1.87;75.77
35307;BME280;21420;52.196;21.416;2022-11-28T03:45:04;101195.16;;;1.81;75.69
35307;BME280;21420;52.196;21.416;2022-11-28T03:47:37;101196.77;;;1.79;75.71
35307;BME280;21420;52.196;21.416;2022-11-28T03:50:10;101199.69;;;1.75;75.66
35307;BME280;21420;52.196;21.416;2022-11-28T03:52:44;101195.92;;;1.74;75.72
35307;BME280;21420;52.196;21.416;2022-11-28T03:55:19;101191.03;;;1.73;75.73
35307;BME280;21420;52.196;21.416;2022-11-28T03:58:38;101193.15;;;1.69;75.58
35307;BME280;21420;52.196;21.416;2022-11-28T04:00:25;101192.56;;;1.64;75.58
35307;BME280;21420;52.196;21.416;2022-11-28T04:05:46;101195.60;;;1.70;75.76
35307;BME280;21420;52.196;21.416;2022-11-28T04:13:52;101197.41;;;1.62;75.66
35307;BME280;21420;52.196;21.416;2022-11-28T04:16:23;101191.45;;;1.60;75.61
35307;BME280;21420;52.196;21.416;2022-11-28T04:18:58;101193.90;;;1.61;75.73
35307;BME280;21420;52.196;21.416;2022-11-28T04:24:35;101187.25;;;1.72;75.91
35307;BME280;21420;52.196;21.416;2022-11-28T04:27:07;101184.82;;;1.73;75.84
35307;BME280;21420;52.196;21.416;2022-11-28T04:29:40;101186.94;;;1.68;75.68
35307;BME280;21420;52.196;21.416;2022-11-28T04:32:12;101179.38;;;1.68;75.71
35307;BME280;21420;52.196;21.416;2022-11-28T04:34:42;101179.38;;;1.68;75.73
35307;BME280;21420;52.196;21.416;2022-11-28T04:37:11;101178.59;;;1.70;75.79
35307;BME280;21420;52.196;21.416;2022-11-28T04:39:42;101173.44;;;1.68;75.77
35307;BME280;21420;52.196;21.416;2022-11-28T04:42:29;101172.86;;;1.63;75.69
35307;BME280;21420;52.196;21.416;2022-11-28T04:44:56;101172.07;;;1.65;75.75
35307;BME280;21420;52.196;21.416;2022-11-28T04:47:25;101178.83;;;1.65;75.77
35307;BME280;21420;52.196;21.416;2022-11-28T04:49:52;101185.82;;;1.64;75.75
35307;BME280;21420;52.196;21.416;2022-11-28T04:58:03;101168.96;;;1.49;75.56
35307;BME280;21420;52.196;21.416;2022-11-28T05:00:51;101173.00;;;1.47;75.59
35307;BME280;21420;52.196;21.416;2022-11-28T05:03:20;101178.11;;;1.48;75.74
35307;BME280;21420;52.196;21.416;2022-11-28T05:05:48;101175.42;;;1.48;75.73
35307;BME280;21420;52.196;21.416;2022-11-28T05:08:17;101180.81;;;1.48;75.71
35307;BME280;21420;52.196;21.416;2022-11-28T05:10:43;101171.89;;;1.45;75.69
35307;BME280;21420;52.196;21.416;2022-11-28T05:13:10;101174.01;;;1.40;75.64
35307;BME280;21420;52.196;21.416;2022-11-28T05:15:37;101171.02;;;1.39;75.61
35307;BME280;21420;52.196;21.416;2022-11-28T05:18:03;101170.97;;;1.34;75.58
35307;BME280;21420;52.196;21.416;2022-11-28T05:20:30;101172.88;;;1.36;75.67
35307;BME280;21420;52.196;21.416;2022-11-28T05:22:58;101178.02;;;1.35;75.67
35307;BME280;21420;52.196;21.416;2022-11-28T05:25:24;101183.11;;;1.34;75.64
35307;BME280;21420;52.196;21.416;2022-11-28T05:27:50;101183.67;;;1.36;75.72
35307;BME280;21420;52.196;21.416;2022-11-28T05:30:17;101182.59;;;1.37;75.68
35307;BME280;21420;52.196;21.416;2022-11-28T05:32:43;101179.05;;;1.32;75.59
35307;BME280;21420;52.196;21.416;2022-11-28T05:35:10;101179.56;;;1.29;75.58
35307;BME280;21420;52.196;21.416;2022-11-28T05:37:36;101184.42;;;1.29;75.65
35307;BME280;21420;52.196;21.416;2022-11-28T05:40:03;101178.50;;;1.32;75.75
35307;BME280;21420;52.196;21.416;2022-11-28T05:42:34;101183.67;;;1.36;75.82
35307;BME280;21420;52.196;21.416;2022-11-28T05:45:00;101187.97;;;1.35;75.76
35307;BME280;21420;52.196;21.416;2022-11-28T05:47:31;101188.25;;;1.33;75.67
35307;BME280;21420;52.196;21.416;2022-11-28T05:49:58;101186.33;;;1.31;75.67
35307;BME280;21420;52.196;21.416;2022-11-28T05:52:24;101190.16;;;1.35;75.87
35307;BME280;21420;52.196;21.416;2022-11-28T05:54:50;101178.59;;;1.40;75.94
35307;BME280;21420;52.196;21.416;2022-11-28T05:57:17;101187.50;;;1.40;75.92
35307;BME280;21420;52.196;21.416;2022-11-28T05:59:45;101189.88;;;1.37;75.82
35307;BME280;21420;52.196;21.416;2022-11-28T06:02:11;101187.20;;;1.39;75.93
35307;BME280;21420;52.196;21.416;2022-11-28T06:04:37;101186.96;;;1.41;75.94
35307;BME280;21420;52.196;21.416;2022-11-28T06:07:06;101183.16;;;1.39;75.88
35307;BME280;21420;52.196;21.416;2022-11-28T06:09:32;101187.99;;;1.37;75.81
35307;BME280;21420;52.196;21.416;2022-11-28T06:11:58;101189.12;;;1.41;75.94
35307;BME280;21420;52.196;21.416;2022-11-28T06:14:24;101183.73;;;1.44;75.96
35307;BME280;21420;52.196;21.416;2022-11-28T06:16:51;101185.36;;;1.42;75.93
35307;BME280;21420;52.196;21.416;2022-11-28T06:19:17;101181.88;;;1.44;75.98
35307;BME280;21420;52.196;21.416;2022-11-28T06:21:48;101186.52;;;1.49;76.06
35307;BME280;21420;52.196;21.416;2022-11-28T06:24:15;101191.39;;;1.52;76.05
35307;BME280;21420;52.196;21.416;2022-11-28T06:26:41;101193.82;;;1.51;75.99
35307;BME280;21420;52.196;21.416;2022-11-28T06:29:07;101198.13;;;1.52;76.03
35307;BME280;21420;52.196;21.416;2022-11-28T06:31:33;101196.00;;;1.54;76.02
35307;BME280;21420;52.196;21.416;2022-11-28T06:34:00;101193.31;;;1.57;76.09
35307;BME280;21420;52.196;21.416;2022-11-28T06:36:26;101201.66;;;1.55;76.03
35307;BME280;21420;52.196;21.416;2022-11-28T06:38:52;101198.68;;;1.52;75.95
35307;BME280;21420;52.196;21.416;2022-11-28T06:41:20;101199.15;;;1.46;75.84
35307;BME280;21420;52.196;21.416;2022-11-28T06:43:47;101200.48;;;1.43;75.85
35307;BME280;21420;52.196;21.416;2022-11-28T06:46:19;101202.95;;;1.48;76.00
35307;BME280;21420;52.196;21.416;2022-11-28T06:48:45;101195.44;;;1.52;76.04
35307;BME280;21420;52.196;21.416;2022-11-28T06:51:12;101191.95;;;1.54;76.06
35307;BME280;21420;52.196;21.416;2022-11-28T06:53:39;101191.42;;;1.57;76.03
35307;BME280;21420;52.196;21.416;2022-11-28T06:56:08;101185.53;;;1.60;76.10
35307;BME280;21420;52.196;21.416;2022-11-28T06:58:36;101188.25;;;1.63;76.06
35307;BME280;21420;52.196;21.416;2022-11-28T07:01:07;101184.95;;;1.56;75.85
35307;BME280;21420;52.196;21.416;2022-11-28T07:03:36;101186.30;;;1.56;75.87
35307;BME280;21420;52.196;21.416;2022-11-28T07:06:05;101188.46;;;1.56;75.91
35307;BME280;21420;52.196;21.416;2022-11-28T07:08:34;101190.05;;;1.55;75.90
35307;BME280;21420;52.196;21.416;2022-11-28T07:11:13;101191.42;;;1.57;75.91
35307;BME280;21420;52.196;21.416;2022-11-28T07:13:40;101193.88;;;1.59;75.98
35307;BME280;21420;52.196;21.416;2022-11-28T07:16:12;101194.48;;;1.66;76.10
35307;BME280;21420;52.196;21.416;2022-11-28T07:18:44;101200.17;;;1.67;75.98
35307;BME280;21420;52.196;21.416;2022-11-28T07:21:11;101192.88;;;1.68;75.98
35307;BME280;21420;52.196;21.416;2022-11-28T07:23:39;101190.47;;;1.71;76.02
35307;BME280;21420;52.196;21.416;2022-11-28T07:26:06;101192.66;;;1.72;75.98
35307;BME280;21420;52.196;21.416;2022-11-28T07:28:33;101192.72;;;1.82;76.15
35307;BME280;21420;52.196;21.416;2022-11-28T07:31:06;101185.27;;;1.92;76.29
35307;BME280;21420;52.196;21.416;2022-11-28T07:33:39;101184.20;;;1.98;76.27
35307;BME280;21420;52.196;21.416;2022-11-28T07:36:10;101188.88;;;2.05;76.27
35307;BME280;21420;52.196;21.416;2022-11-28T07:38:38;101186.75;;;2.10;76.31
35307;BME280;21420;52.196;21.416;2022-11-28T07:41:10;101183.83;;;2.16;76.33
35307;BME280;21420;52.196;21.416;2022-11-28T07:43:42;101184.92;;;2.23;76.37
35307;BME280;21420;52.196;21.416;2022-11-28T07:46:10;101180.85;;;2.20;76.13
35307;BME280;21420;52.196;21.416;2022-11-28T07:48:38;101184.62;;;2.17;76.05
35307;BME280;21420;52.196;21.416;2022-11-28T07:51:06;101189.71;;;2.11;75.85
35307;BME280;21420;52.196;21.416;2022-11-28T07:53:36;101184.05;;;2.10;75.94
35307;BME280;21420;52.196;21.416;2022-11-28T07:56:05;101183.83;;;2.16;76.07
35307;BME280;21420;52.196;21.416;2022-11-28T07:58:34;101176.02;;;2.25;76.25
35307;BME280;21420;52.196;21.416;2022-11-28T08:01:09;101174.99;;;2.34;76.33
35307;BME280;21420;52.196;21.416;2022-11-28T08:03:36;101170.95;;;2.36;76.30
35307;BME280;21420;52.196;21.416;2022-11-28T08:06:03;101181.27;;;2.42;76.29
35307;BME280;21420;52.196;21.416;2022-11-28T08:08:30;101176.97;;;2.46;76.23
35307;BME280;21420;52.196;21.416;2022-11-28T08:11:01;101179.66;;;2.43;76.06
35307;BME280;21420;52.196;21.416;2022-11-28T08:13:29;101178.56;;;2.42;75.94
35307;BME280;21420;52.196;21.416;2022-11-28T08:15:55;101178.55;;;2.39;75.88
35307;BME280;21420;52.196;21.416;2022-11-28T08:18:21;101178.26;;;2.38;75.91
35307;BME280;21420;52.196;21.416;2022-11-28T08:20:48;101177.47;;;2.43;76.02
35307;BME280;21420;52.196;21.416;2022-11-28T08:23:15;101177.23;;;2.47;75.99
35307;BME280;21420;52.196;21.416;2022-11-28T08:25:41;101176.19;;;2.50;75.98
35307;BME280;21420;52.196;21.416;2022-11-28T08:28:07;101173.75;;;2.54;76.00
35307;BME280;21420;52.196;21.416;2022-11-28T08:30:33;101175.94;;;2.55;75.94
35307;BME280;21420;52.196;21.416;2022-11-28T08:33:00;101181.36;;;2.57;75.89
35307;BME280;21420;52.196;21.416;2022-11-28T08:35:26;101180.81;;;2.58;75.85
35307;BME280;21420;52.196;21.416;2022-11-28T08:37:53;101185.41;;;2.57;75.78
35307;BME280;21420;52.196;21.416;2022-11-28T08:40:19;101182.72;;;2.60;75.81
35307;BME280;21420;52.196;21.416;2022-11-28T08:42:45;101181.11;;;2.61;75.89
35307;BME280;21420;52.196;21.416;2022-11-28T08:45:11;101177.89;;;2.72;76.06
35307;BME280;21420;52.196;21.416;2022-11-28T08:47:38;101183.61;;;2.78;76.04
35307;BME280;21420;52.196;21.416;2022-11-28T08:50:05;101180.36;;;2.81;75.96
35307;BME280;21420;52.196;21.416;2022-11-28T08:52:32;101186.33;;;2.83;75.94
35307;BME280;21420;52.196;21.416;2022-11-28T08:54:58;101185.81;;;2.84;75.80
35307;BME280;21420;52.196;21.416;2022-11-28T08:57:24;101186.88;;;2.85;75.80
35307;BME280;21420;52.196;21.416;2022-11-28T08:59:50;101182.00;;;2.80;75.67
35307;BME280;21420;52.196;21.416;2022-11-28T09:02:17;101183.91;;;2.82;75.82
35307;BME280;21420;52.196;21.416;2022-11-28T09:04:43;101175.80;;;2.84;75.80
35307;BME280;21420;52.196;21.416;2022-11-28T09:07:09;101180.11;;;2.85;75.78
35307;BME280;21420;52.196;21.416;2022-11-28T09:09:36;101179.87;;;2.89;75.86
35307;BME280;21420;52.196;21.416;2022-11-28T09:12:02;101178.27;;;2.94;75.83
35307;BME280;21420;52.196;21.416;2022-11-28T09:14:28;101169.86;;;2.92;75.79
35307;BME280;21420;52.196;21.416;2022-11-28T09:16:55;101175.81;;;2.95;75.80
35307;BME280;21420;52.196;21.416;2022-11-28T09:19:22;101171.77;;;2.95;75.73
35307;BME280;21420;52.196;21.416;2022-11-28T09:21:49;101173.91;;;2.90;75.63
35307;BME280;21420;52.196;21.416;2022-11-28T09:24:15;101170.39;;;2.84;75.56
35307;BME280;21420;52.196;21.416;2022-11-28T09:26:41;101167.67;;;2.82;75.60
35307;BME280;21420;52.196;21.416;2022-11-28T09:29:07;101164.41;;;2.77;75.56
35307;BME280;21420;52.196;21.416;2022-11-28T09:31:34;101166.03;;;2.78;75.78
35307;BME280;21420;52.196;21.416;2022-11-28T09:34:00;101165.53;;;2.89;75.99
35307;BME280;21420;52.196;21.416;2022-11-28T09:36:28;101161.73;;;2.90;75.89
35307;BME280;21420;52.196;21.416;2022-11-28T09:38:59;101160.93;;;2.89;75.84
35307;BME280;21420;52.196;21.416;2022-11-28T09:44:49;101148.81;;;3.07;75.95
35307;BME280;21420;52.196;21.416;2022-11-28T09:47:25;101151.00;;;3.13;75.96
35307;BME280;21420;52.196;21.416;2022-11-28T09:49:56;101145.05;;;3.16;75.92
35307;BME280;21420;52.196;21.416;2022-11-28T09:52:37;101145.05;;;3.26;76.08
35307;BME280;21420;52.196;21.416;2022-11-28T09:57:53;101140.47;;;3.27;75.68
35307;BME280;21420;52.196;21.416;2022-11-28T10:00:29;101134.48;;;3.20;75.51
35307;BME280;21420;52.196;21.416;2022-11-28T10:03:12;101130.16;;;3.19;75.62
35307;BME280;21420;52.196;21.416;2022-11-28T10:05:59;101125.27;;;3.10;75.50
35307;BME280;21420;52.196;21.416;2022-11-28T10:08:52;101127.70;;;3.09;75.58
35307;BME280;21420;52.196;21.416;2022-11-28T10:11:44;101125.00;;;3.07;75.63
35307;BME280;21420;52.196;21.416;2022-11-28T10:20:02;101120.05;;;2.81;75.41
35307;BME280;21420;52.196;21.416;2022-11-28T10:22:45;101126.00;;;2.80;75.56
35307;BME280;21420;52.196;21.416;2022-11-28T10:25:18;101118.44;;;2.80;75.63
35307;BME280;21420;52.196;21.416;2022-11-28T10:27:56;101120.59;;;2.78;75.59
35307;BME280;21420;52.196;21.416;2022-11-28T10:30:25;101119.78;;;2.77;75.63
35307;BME280;21420;52.196;21.416;2022-11-28T10:33:16;101115.98;;;2.78;75.66
35307;BME280;21420;52.196;21.416;2022-11-28T10:35:55;101118.13;;;2.71;75.50
35307;BME280;21420;52.196;21.416;2022-11-28T10:38:25;101120.28;;;2.69;75.57
35307;BME280;21420;52.196;21.416;2022-11-28T10:43:50;101108.91;;;2.64;75.60
35307;BME280;21420;52.196;21.416;2022-11-28T10:49:39;101105.41;;;2.66;75.70
35307;BME280;21420;52.196;21.416;2022-11-28T10:52:14;101107.56;;;2.64;75.64
35307;BME280;21420;52.196;21.416;2022-11-28T11:00:44;101099.46;;;2.72;75.93
35307;BME280;21420;52.196;21.416;2022-11-28T11:03:12;101098.66;;;2.77;75.97
35307;BME280;21420;52.196;21.416;2022-11-28T11:05:42;101104.91;;;2.77;75.93
35307;BME280;21420;52.196;21.416;2022-11-28T11:08:23;101092.19;;;2.73;75.80
35307;BME280;21420;52.196;21.416;2022-11-28T11:11:27;101089.99;;;2.72;75.87
35307;BME280;21420;52.196;21.416;2022-11-28T11:19:34;101090.03;;;2.77;75.96
35307;BME280;21420;52.196;21.416;2022-11-28T11:22:13;101095.16;;;2.81;75.95
35307;BME280;21420;52.196;21.416;2022-11-28T11:24:35;101089.23;;;2.79;75.82
35307;BME280;21420;52.196;21.416;2022-11-28T11:27:16;101089.48;;;2.75;75.73
35307;BME280;21420;52.196;21.416;2022-11-28T11:29:46;101088.94;;;2.73;75.71
35307;BME280;21420;52.196;21.416;2022-11-28T11:32:29;101088.64;;;2.72;75.77
35307;BME280;21420;52.196;21.416;2022-11-28T11:34:56;101094.89;;;2.73;75.80
35307;BME280;21420;52.196;21.416;2022-11-28T11:37:35;101094.05;;;2.75;75.86
35307;BME280;21420;52.196;21.416;2022-11-28T11:42:57;101095.99;;;2.82;75.84
35307;BME280;21420;52.196;21.416;2022-11-28T11:47:57;101097.90;;;2.86;75.95
35307;BME280;21420;52.196;21.416;2022-11-28T11:50:25;101094.94;;;2.96;76.03
35307;BME280;21420;52.196;21.416;2022-11-28T11:55:48;101098.74;;;3.02;75.94
35307;BME280;21420;52.196;21.416;2022-11-28T11:58:25;101101.70;;;2.93;75.64
35307;BME280;21420;52.196;21.416;2022-11-28T12:00:56;101106.53;;;2.86;75.54
35307;BME280;21420;52.196;21.416;2022-11-28T12:04:11;101097.86;;;2.79;75.55
35307;BME280;21420;52.196;21.416;2022-11-28T12:06:26;101104.07;;;2.77;75.64
35307;BME280;21420;52.196;21.416;2022-11-28T12:11:49;101095.95;;;2.74;75.66
35307;BME280;21420;52.196;21.416;2022-11-28T12:14:29;101106.20;;;2.64;75.46
35307;BME280;21420;52.196;21.416;2022-11-28T12:17:05;101107.00;;;2.60;75.47
35307;BME280;21420;52.196;21.416;2022-11-28T12:20:23;101104.55;;;2.58;75.57
35307;BME280;21420;52.196;21.416;2022-11-28T13:09:26;101091.39;;;2.80;75.89
35307;BME280;21420;52.196;21.416;2022-11-28T13:12:25;101084.59;;;2.75;75.87
35307;BME280;21420;52.196;21.416;2022-11-28T13:15:01;101085.94;;;2.75;75.80
35307;BME280;21420;52.196;21.416;2022-11-28T13:17:42;101090.54;;;2.71;75.74
35307;BME280;21420;52.196;21.416;2022-11-28T13:23:21;101083.23;;;2.69;75.82
35307;BME280;21420;52.196;21.416;2022-11-28T13:26:14;101082.13;;;2.65;75.79
35307;BME280;21420;52.196;21.416;2022-11-28T13:29:00;101087.82;;;2.61;75.77
35307;BME280;21420;52.196;21.416;2022-11-28T13:31:36;101088.59;;;2.57;75.76
35307;BME280;21420;52.196;21.416;2022-11-28T13:34:15;101093.19;;;2.59;75.83
35307;BME280;21420;52.196;21.416;2022-11-28T13:36:47;101089.42;;;2.60;75.87
35307;BME280;21420;52.196;21.416;2022-11-28T13:45:04;101097.24;;;2.56;75.80
35307;BME280;21420;52.196;21.416;2022-11-28T13:47:34;101099.13;;;2.53;75.76
35307;BME280;21420;52.196;21.416;2022-11-28T13:55:42;101097.53;;;2.55;75.83
35307;BME280;21420;52.196;21.416;2022-11-28T13:58:30;101087.47;;;2.47;75.72
35307;BME280;21420;52.196;21.416;2022-11-28T14:01:22;101085.06;;;2.48;75.78
35307;BME280;21420;52.196;21.416;2022-11-28T14:04:09;101082.61;;;2.47;75.79
35307;BME280;21420;52.196;21.416;2022-11-28T14:06:50;101087.75;;;2.46;75.77
35307;BME280;21420;52.196;21.416;2022-11-28T14:15:13;101078.25;;;2.38;75.77
35307;BME280;21420;52.196;21.416;2022-11-28T14:18:06;101074.74;;;2.40;75.84
35307;BME280;21420;52.196;21.416;2022-11-28T14:21:30;101071.77;;;2.37;75.72
35307;BME280;21420;52.196;21.416;2022-11-28T14:24:14;101079.05;;;2.36;75.78
35307;BME280;21420;52.196;21.416;2022-11-28T14:26:36;101076.88;;;2.33;75.77
35307;BME280;21420;52.196;21.416;2022-11-28T14:29:18;101072.81;;;2.28;75.70
35307;BME280;21420;52.196;21.416;2022-11-28T14:31:45;101068.45;;;2.24;75.73
35307;BME280;21420;52.196;21.416;2022-11-28T14:34:44;101074.41;;;2.26;75.82
35307;BME280;21420;52.196;21.416;2022-11-28T14:39:55;101070.61;;;2.22;75.77
35307;BME280;21420;52.196;21.416;2022-11-28T14:45:01;101070.59;;;2.17;75.71
35307;BME280;21420;52.196;21.416;2022-11-28T14:50:47;101070.02;;;2.10;75.67
35307;BME280;21420;52.196;21.416;2022-11-28T14:59:01;101067.03;;;2.12;75.85
35307;BME280;21420;52.196;21.416;2022-11-28T15:05:34;101058.42;;;2.15;75.91
35307;BME280;21420;52.196;21.416;2022-11-28T15:11:28;101057.31;;;2.11;75.85
35307;BME280;21420;52.196;21.416;2022-11-28T15:14:21;101065.95;;;2.07;75.83
35307;BME280;21420;52.196;21.416;2022-11-28T15:16:55;101060.00;;;2.05;75.79
35307;BME280;21420;52.196;21.416;2022-11-28T15:19:30;101064.61;;;2.07;75.80
35307;BME280;21420;52.196;21.416;2022-11-28T15:21:59;101054.85;;;2.04;75.76
35307;BME280;21420;52.196;21.416;2022-11-28T15:29:39;101060.47;;;1.95;75.69
35307;BME280;21420;52.196;21.416;2022-11-28T15:32:12;101059.12;;;1.92;75.70
35307;BME280;21420;52.196;21.416;2022-11-28T15:34:41;101066.42;;;1.94;75.79
35307;BME280;21420;52.196;21.416;2022-11-28T15:37:16;101061.02;;;1.92;75.71
35307;BME280;21420;52.196;21.416;2022-11-28T15:39:46;101066.11;;;1.88;75.63
35307;BME280;21420;52.196;21.416;2022-11-28T15:45:24;101062.30;;;1.84;75.67
35307;BME280;21420;52.196;21.416;2022-11-28T15:47:53;101063.39;;;1.85;75.70
35307;BME280;21420;52.196;21.416;2022-11-28T15:50:28;101063.14;;;1.87;75.80
35307;BME280;21420;52.196;21.416;2022-11-28T15:53:02;101068.55;;;1.87;75.78
35307;BME280;21420;52.196;21.416;2022-11-28T15:55:32;101066.66;;;1.87;75.77
35307;BME280;21420;52.196;21.416;2022-11-28T15:58:22;101073.11;;;1.86;75.77
35307;BME280;21420;52.196;21.416;2022-11-28T16:06:31;101064.31;;;2.06;76.03
35307;BME280;21420;52.196;21.416;2022-11-28T16:09:23;101063.50;;;2.03;75.86
35307;BME280;21420;52.196;21.416;2022-11-28T16:11:45;101059.94;;;1.98;75.74
35307;BME280;21420;52.196;21.416;2022-11-28T16:14:36;101063.17;;;1.95;75.73
35307;BME280;21420;52.196;21.416;2022-11-28T16:17:10;101064.21;;;1.88;75.59
35307;BME280;21420;52.196;21.416;2022-11-28T16:19:49;101066.63;;;1.82;75.60
35307;BME280;21420;52.196;21.416;2022-11-28T16:22:26;101064.43;;;1.79;75.59
35307;BME280;21420;52.196;21.416;2022-11-28T16:25:20;101063.33;;;1.78;75.63
35307;BME280;21420;52.196;21.416;2022-11-28T16:27:47;101065.77;;;1.77;75.69
35307;BME280;21420;52.196;21.416;2022-11-28T16:33:41;101063.84;;;1.70;75.58
35307;BME280;21420;52.196;21.416;2022-11-28T16:36:39;101071.63;;;1.66;75.60
35307;BME280;21420;52.196;21.416;2022-11-28T16:41:51;101061.06;;;1.62;75.65